sensor_id;sensor_type;location;lat;lon;timestamp;pressure;altitude;pressure_sealevel;temperature;humidity
25130;BME280;13308;50.860;13.664;2023-04-07T05:00:59;96769.34;;;-0.87;98.10
25130;BME280;13308;50.860;13.664;2023-04-07T05:03:34;96773.28;;;-0.84;98.17
25130;BME280;13308;50.860;13.664;2023-04-07T05:06:04;96773.13;;;-0.76;97.93
25130;BME280;13308;50.860;13.664;2023-04-07T05:08:30;96777.34;;;-0.63;96.83
25130;BME280;13308;50.860;13.664;2023-04-07T05:10:56;96775.06;;;-0.61;97.31
25130;BME280;13308;50.860;13.664;2023-04-07T05:13:24;96781.28;;;-0.60;97.17
25130;BME280;13308;50.860;13.664;2023-04-07T05:15:50;96763.09;;;-0.60;96.85
25130;BME280;13308;50.860;13.664;2023-04-07T05:18:17;96771.41;;;-0.53;96.16
25130;BME280;13308;50.860;13.664;2023-04-07T05:20:43;96764.41;;;-0.54;96.22
25130;BME280;13308;50.860;13.664;2023-04-07T05:23:09;96764.78;;;-0.40;96.16
25130;BME280;13308;50.860;13.664;2023-04-07T05:25:36;96769.56;;;-0.33;95.61
25130;BME280;13308;50.860;13.664;2023-04-07T05:28:03;96768.00;;;-0.34;95.72
25130;BME280;13308;50.860;13.664;2023-04-07T05:30:28;96762.75;;;-0.28;95.00
25130;BME280;13308;50.860;13.664;2023-04-07T05:32:54;96763.13;;;-0.13;93.98
25130;BME280;13308;50.860;13.664;2023-04-07T05:35:35;96763.38;;;-0.03;93.72
25130;BME280;13308;50.860;13.664;2023-04-07T05:38:00;96769.28;;;0.18;93.96
25130;BME280;13308;50.860;13.664;2023-04-07T05:40:27;96772.06;;;0.37;92.64
25130;BME280;13308;50.860;13.664;2023-04-07T05:42:54;96765.66;;;0.64;91.26
25130;BME280;13308;50.860;13.664;2023-04-07T05:45:19;96761.75;;;0.99;90.85
25130;BME280;13308;50.860;13.664;2023-04-07T05:47:48;96762.75;;;1.10;90.61
25130;BME280;13308;50.860;13.664;2023-04-07T05:50:18;96768.75;;;1.42;88.52
25130;BME280;13308;50.860;13.664;2023-04-07T05:52:45;96770.59;;;1.57;87.84
25130;BME280;13308;50.860;13.664;2023-04-07T05:55:19;96763.84;;;1.70;86.16
25130;BME280;13308;50.860;13.664;2023-04-07T05:57:45;96768.13;;;1.93;86.39
25130;BME280;13308;50.860;13.664;2023-04-07T06:00:14;96760.53;;;2.06;84.34
25130;BME280;13308;50.860;13.664;2023-04-07T06:02:44;96763.13;;;2.21;83.28
25130;BME280;13308;50.860;13.664;2023-04-07T06:05:15;96761.75;;;2.34;83.06
25130;BME280;13308;50.860;13.664;2023-04-07T06:07:40;96764.16;;;2.65;81.47
25130;BME280;13308;50.860;13.664;2023-04-07T06:10:07;96764.47;;;2.60;80.72
25130;BME280;13308;50.860;13.664;2023-04-07T06:12:32;96768.88;;;2.68;79.72
25130;BME280;13308;50.860;13.664;2023-04-07T06:14:58;96765.47;;;2.75;79.67
25130;BME280;13308;50.860;13.664;2023-04-07T06:17:24;96760.88;;;2.82;80.02
25130;BME280;13308;50.860;13.664;2023-04-07T06:19:49;96756.06;;;3.35;93.56
25130;BME280;13308;50.860;13.664;2023-04-07T06:22:15;96758.41;;;4.20;94.74
25130;BME280;13308;50.860;13.664;2023-04-07T06:24:40;96763.81;;;4.13;85.90
25130;BME280;13308;50.860;13.664;2023-04-07T06:27:05;96752.13;;;4.16;79.51
25130;BME280;13308;50.860;13.664;2023-04-07T06:29:32;96770.78;;;4.07;78.51
25130;BME280;13308;50.860;13.664;2023-04-07T06:31:59;96763.91;;;4.27;77.01
25130;BME280;13308;50.860;13.664;2023-04-07T06:34:25;96761.78;;;4.53;78.19
25130;BME280;13308;50.860;13.664;2023-04-07T06:36:51;96766.38;;;4.46;74.82
25130;BME280;13308;50.860;13.664;2023-04-07T06:39:16;96762.03;;;5.06;70.91
25130;BME280;13308;50.860;13.664;2023-04-07T06:41:42;96769.94;;;5.18;71.04
25130;BME280;13308;50.860;13.664;2023-04-07T06:44:09;96769.97;;;5.32;68.94
25130;BME280;13308;50.860;13.664;2023-04-07T06:46:35;96771.88;;;5.14;71.19
25130;BME280;13308;50.860;13.664;2023-04-07T06:49:00;96772.38;;;5.44;69.92
25130;BME280;13308;50.860;13.664;2023-04-07T06:51:26;96766.91;;;5.44;71.15
25130;BME280;13308;50.860;13.664;2023-04-07T06:53:51;96770.09;;;5.67;71.71
25130;BME280;13308;50.860;13.664;2023-04-07T06:56:17;96767.78;;;5.83;70.68
25130;BME280;13308;50.860;13.664;2023-04-07T06:58:42;96767.81;;;6.11;69.17
25130;BME280;13308;50.860;13.664;2023-04-07T07:01:07;96767.03;;;6.38;68.30
25130;BME280;13308;50.860;13.664;2023-04-07T07:03:33;96774.47;;;6.73;67.18
25130;BME280;13308;50.860;13.664;2023-04-07T07:05:58;96770.41;;;7.16;66.80
25130;BME280;13308;50.860;13.664;2023-04-07T07:08:25;96773.94;;;7.13;59.72
25130;BME280;13308;50.860;13.664;2023-04-07T07:10:51;96779.22;;;7.65;61.04
25130;BME280;13308;50.860;13.664;2023-04-07T07:13:17;96779.84;;;7.90;56.16
25130;BME280;13308;50.860;13.664;2023-04-07T07:15:43;96777.91;;;8.45;56.75
25130;BME280;13308;50.860;13.664;2023-04-07T07:18:08;96782.88;;;9.04;54.60
25130;BME280;13308;50.860;13.664;2023-04-07T07:20:33;96787.59;;;9.67;52.96
25130;BME280;13308;50.860;13.664;2023-04-07T07:22:59;96787.56;;;10.27;50.14
25130;BME280;13308;50.860;13.664;2023-04-07T07:25:24;96794.91;;;11.06;48.12
25130;BME280;13308;50.860;13.664;2023-04-07T07:27:53;96798.09;;;11.86;47.20
25130;BME280;13308;50.860;13.664;2023-04-07T07:30:22;96802.38;;;12.74;43.48
25130;BME280;13308;50.860;13.664;2023-04-07T07:32:48;96813.03;;;13.52;41.95
25130;BME280;13308;50.860;13.664;2023-04-07T07:35:14;96815.69;;;13.84;41.27
25130;BME280;13308;50.860;13.664;2023-04-07T07:37:40;96818.34;;;14.29;38.68
25130;BME280;13308;50.860;13.664;2023-04-07T07:40:06;96822.03;;;14.88;38.69
25130;BME280;13308;50.860;13.664;2023-04-07T07:42:31;96824.06;;;15.34;39.26
25130;BME280;13308;50.860;13.664;2023-04-07T07:44:57;96824.56;;;15.54;38.97
25130;BME280;13308;50.860;13.664;2023-04-07T07:47:23;96836.00;;;15.99;36.67
25130;BME280;13308;50.860;13.664;2023-04-07T07:49:48;96838.78;;;16.42;35.71
25130;BME280;13308;50.860;13.664;2023-04-07T07:52:14;96844.78;;;16.62;34.45
25130;BME280;13308;50.860;13.664;2023-04-07T07:54:39;96831.69;;;14.46;37.54
25130;BME280;13308;50.860;13.664;2023-04-07T07:57:05;96829.06;;;13.45;40.17
25130;BME280;13308;50.860;13.664;2023-04-07T07:59:31;96819.94;;;12.68;41.57
25130;BME280;13308;50.860;13.664;2023-04-07T08:01:56;96825.53;;;12.48;42.46
25130;BME280;13308;50.860;13.664;2023-04-07T08:04:22;96829.22;;;13.09;40.50
25130;BME280;13308;50.860;13.664;2023-04-07T08:06:48;96830.31;;;12.48;42.96
25130;BME280;13308;50.860;13.664;2023-04-07T08:09:14;96835.09;;;12.95;41.51
25130;BME280;13308;50.860;13.664;2023-04-07T08:11:39;96838.50;;;13.47;39.84
25130;BME280;13308;50.860;13.664;2023-04-07T08:14:04;96832.91;;;14.04;39.29
25130;BME280;13308;50.860;13.664;2023-04-07T08:16:30;96829.06;;;13.73;40.84
25130;BME280;13308;50.860;13.664;2023-04-07T08:18:55;96839.03;;;13.42;41.75
25130;BME280;13308;50.860;13.664;2023-04-07T08:21:20;96845.66;;;13.16;41.18
25130;BME280;13308;50.860;13.664;2023-04-07T08:23:46;96841.66;;;13.17;41.88
25130;BME280;13308;50.860;13.664;2023-04-07T08:26:11;96847.34;;;12.94;42.89
25130;BME280;13308;50.860;13.664;2023-04-07T08:28:36;96842.28;;;12.77;43.33
25130;BME280;13308;50.860;13.664;2023-04-07T08:31:02;96844.00;;;12.35;44.68
25130;BME280;13308;50.860;13.664;2023-04-07T08:33:27;96841.97;;;11.84;45.12
25130;BME280;13308;50.860;13.664;2023-04-07T08:35:52;96841.44;;;11.50;44.54
25130;BME280;13308;50.860;13.664;2023-04-07T08:38:18;96834.38;;;11.26;46.78
25130;BME280;13308;50.860;13.664;2023-04-07T08:40:43;96848.06;;;11.33;44.75
25130;BME280;13308;50.860;13.664;2023-04-07T08:43:08;96843.69;;;11.55;45.35
25130;BME280;13308;50.860;13.664;2023-04-07T08:45:38;96839.97;;;11.42;46.20
25130;BME280;13308;50.860;13.664;2023-04-07T08:48:21;96841.78;;;11.52;46.15
25130;BME280;13308;50.860;13.664;2023-04-07T08:50:48;96840.34;;;11.67;46.27
25130;BME280;13308;50.860;13.664;2023-04-07T08:53:17;96829.66;;;11.46;46.80
25130;BME280;13308;50.860;13.664;2023-04-07T08:55:50;96827.84;;;11.59;46.95
25130;BME280;13308;50.860;13.664;2023-04-07T08:58:17;96825.56;;;11.54;47.16
25130;BME280;13308;50.860;13.664;2023-04-07T09:00:43;96826.50;;;11.25;46.42
25130;BME280;13308;50.860;13.664;2023-04-07T09:03:10;96835.47;;;11.32;46.78
25130;BME280;13308;50.860;13.664;2023-04-07T09:05:36;96832.25;;;11.14;47.84
25130;BME280;13308;50.860;13.664;2023-04-07T09:08:02;96832.53;;;11.20;46.97
25130;BME280;13308;50.860;13.664;2023-04-07T09:10:27;96829.34;;;11.21;47.96
25130;BME280;13308;50.860;13.664;2023-04-07T09:12:53;96832.56;;;11.39;47.23
25130;BME280;13308;50.860;13.664;2023-04-07T09:15:18;96820.78;;;11.58;46.98
25130;BME280;13308;50.860;13.664;2023-04-07T09:17:44;96824.44;;;11.52;47.63
25130;BME280;13308;50.860;13.664;2023-04-07T09:20:10;96833.13;;;11.73;46.19
25130;BME280;13308;50.860;13.664;2023-04-07T09:22:43;96827.28;;;11.87;47.75
25130;BME280;13308;50.860;13.664;2023-04-07T09:25:20;96830.41;;;11.89;47.61
25130;BME280;13308;50.860;13.664;2023-04-07T09:28:02;96837.34;;;11.97;46.58
25130;BME280;13308;50.860;13.664;2023-04-07T09:30:29;96823.31;;;11.49;47.14
25130;BME280;13308;50.860;13.664;2023-04-07T09:32:55;96820.69;;;11.62;47.18
25130;BME280;13308;50.860;13.664;2023-04-07T09:35:21;96821.06;;;11.64;46.26
25130;BME280;13308;50.860;13.664;2023-04-07T09:38:01;96824.19;;;11.43;47.54
25130;BME280;13308;50.860;13.664;2023-04-07T09:40:27;96826.69;;;11.57;46.70
25130;BME280;13308;50.860;13.664;2023-04-07T09:42:53;96819.25;;;11.11;47.37
25130;BME280;13308;50.860;13.664;2023-04-07T09:45:28;96817.44;;;11.24;47.10
25130;BME280;13308;50.860;13.664;2023-04-07T09:47:53;96804.59;;;11.37;48.41
25130;BME280;13308;50.860;13.664;2023-04-07T09:50:54;96821.03;;;11.44;48.13
25130;BME280;13308;50.860;13.664;2023-04-07T09:53:47;96818.09;;;11.32;47.81
25130;BME280;13308;50.860;13.664;2023-04-07T09:56:16;96821.09;;;11.41;47.67
25130;BME280;13308;50.860;13.664;2023-04-07T09:58:43;96817.88;;;11.42;47.78
25130;BME280;13308;50.860;13.664;2023-04-07T10:01:09;96823.19;;;11.33;47.66
25130;BME280;13308;50.860;13.664;2023-04-07T10:03:36;96822.41;;;11.13;47.60
25130;BME280;13308;50.860;13.664;2023-04-07T10:06:02;96823.81;;;11.21;46.67
25130;BME280;13308;50.860;13.664;2023-04-07T10:08:30;96817.66;;;11.14;47.95
25130;BME280;13308;50.860;13.664;2023-04-07T10:10:57;96831.03;;;10.92;49.12
25130;BME280;13308;50.860;13.664;2023-04-07T10:13:25;96821.75;;;11.06;47.15
25130;BME280;13308;50.860;13.664;2023-04-07T10:15:51;96827.06;;;11.16;46.87
25130;BME280;13308;50.860;13.664;2023-04-07T10:18:16;96824.69;;;10.95;47.73
25130;BME280;13308;50.860;13.664;2023-04-07T10:20:44;96839.03;;;10.87;45.91
25130;BME280;13308;50.860;13.664;2023-04-07T10:23:21;96836.22;;;10.90;47.41
25130;BME280;13308;50.860;13.664;2023-04-07T10:25:50;96828.16;;;10.99;47.08
25130;BME280;13308;50.860;13.664;2023-04-07T10:28:17;96832.47;;;11.00;47.58
25130;BME280;13308;50.860;13.664;2023-04-07T10:30:46;96828.00;;;10.87;46.96
25130;BME280;13308;50.860;13.664;2023-04-07T10:33:12;96822.88;;;10.85;48.69
25130;BME280;13308;50.860;13.664;2023-04-07T10:36:05;96827.94;;;11.13;47.72
25130;BME280;13308;50.860;13.664;2023-04-07T10:38:31;96816.00;;;11.39;47.13
25130;BME280;13308;50.860;13.664;2023-04-07T10:40:57;96821.44;;;11.43;48.30
25130;BME280;13308;50.860;13.664;2023-04-07T10:43:38;96828.94;;;11.42;47.16
25130;BME280;13308;50.860;13.664;2023-04-07T10:46:06;96828.34;;;11.74;47.45
25130;BME280;13308;50.860;13.664;2023-04-07T10:48:31;96827.09;;;11.78;48.21
25130;BME280;13308;50.860;13.664;2023-04-07T10:53:28;96833.03;;;11.77;45.59
25130;BME280;13308;50.860;13.664;2023-04-07T10:55:53;96830.75;;;11.91;46.60
25130;BME280;13308;50.860;13.664;2023-04-07T10:58:30;96826.50;;;11.87;46.16
25130;BME280;13308;50.860;13.664;2023-04-07T11:03:21;96830.03;;;12.42;46.81
25130;BME280;13308;50.860;13.664;2023-04-07T11:05:46;96830.78;;;12.07;45.70
25130;BME280;13308;50.860;13.664;2023-04-07T11:08:12;96816.69;;;12.37;44.05
25130;BME280;13308;50.860;13.664;2023-04-07T11:10:37;96828.78;;;12.95;45.03
25130;BME280;13308;50.860;13.664;2023-04-07T11:13:06;96833.69;;;12.87;47.35
25130;BME280;13308;50.860;13.664;2023-04-07T11:15:36;96827.84;;;13.01;46.83
25130;BME280;13308;50.860;13.664;2023-04-07T11:18:09;96819.50;;;13.17;45.34
25130;BME280;13308;50.860;13.664;2023-04-07T11:20:46;96820.03;;;12.80;44.69
25130;BME280;13308;50.860;13.664;2023-04-07T11:23:13;96821.91;;;12.67;46.02
25130;BME280;13308;50.860;13.664;2023-04-07T11:25:41;96822.09;;;12.76;46.21
25130;BME280;13308;50.860;13.664;2023-04-07T11:28:08;96822.44;;;12.78;47.57
25130;BME280;13308;50.860;13.664;2023-04-07T11:30:34;96821.78;;;12.74;47.52
25130;BME280;13308;50.860;13.664;2023-04-07T11:33:00;96830.69;;;13.14;46.15
25130;BME280;13308;50.860;13.664;2023-04-07T11:35:26;96816.75;;;13.17;46.38
25130;BME280;13308;50.860;13.664;2023-04-07T11:37:58;96826.50;;;13.38;47.07
25130;BME280;13308;50.860;13.664;2023-04-07T11:40:35;96813.63;;;13.60;47.94
25130;BME280;13308;50.860;13.664;2023-04-07T11:43:01;96822.09;;;13.53;45.88
25130;BME280;13308;50.860;13.664;2023-04-07T11:45:27;96824.03;;;13.68;46.57
25130;BME280;13308;50.860;13.664;2023-04-07T11:47:52;96829.50;;;13.43;45.79
25130;BME280;13308;50.860;13.664;2023-04-07T11:50:40;96823.09;;;13.46;46.68
25130;BME280;13308;50.860;13.664;2023-04-07T11:53:06;96821.44;;;13.49;47.64
25130;BME280;13308;50.860;13.664;2023-04-07T11:55:31;96821.72;;;13.38;46.40
25130;BME280;13308;50.860;13.664;2023-04-07T11:58:05;96814.91;;;13.27;44.93
25130;BME280;13308;50.860;13.664;2023-04-07T12:00:30;96815.44;;;12.90;46.98
25130;BME280;13308;50.860;13.664;2023-04-07T12:02:56;96819.28;;;12.96;46.24
25130;BME280;13308;50.860;13.664;2023-04-07T12:05:21;96817.94;;;12.84;48.18
25130;BME280;13308;50.860;13.664;2023-04-07T12:07:52;96816.47;;;12.48;45.48
25130;BME280;13308;50.860;13.664;2023-04-07T12:10:22;96818.75;;;12.17;46.65
25130;BME280;13308;50.860;13.664;2023-04-07T12:12:48;96801.56;;;12.26;46.99
25130;BME280;13308;50.860;13.664;2023-04-07T12:15:14;96804.41;;;12.22;47.44
25130;BME280;13308;50.860;13.664;2023-04-07T12:17:44;96806.78;;;12.04;47.06
25130;BME280;13308;50.860;13.664;2023-04-07T12:20:11;96798.28;;;11.95;49.00
25130;BME280;13308;50.860;13.664;2023-04-07T12:22:36;96802.91;;;11.82;48.88
25130;BME280;13308;50.860;13.664;2023-04-07T12:25:02;96804.13;;;11.81;50.57
25130;BME280;13308;50.860;13.664;2023-04-07T12:27:27;96807.69;;;11.62;50.61
25130;BME280;13308;50.860;13.664;2023-04-07T12:29:52;96807.78;;;11.75;49.91
25130;BME280;13308;50.860;13.664;2023-04-07T12:32:18;96807.34;;;11.57;49.57
25130;BME280;13308;50.860;13.664;2023-04-07T12:34:43;96802.75;;;11.50;50.03
25130;BME280;13308;50.860;13.664;2023-04-07T12:37:08;96804.59;;;11.37;51.18
25130;BME280;13308;50.860;13.664;2023-04-07T12:39:34;96811.38;;;11.13;49.55
25130;BME280;13308;50.860;13.664;2023-04-07T12:41:59;96804.16;;;11.19;52.02
25130;BME280;13308;50.860;13.664;2023-04-07T12:44:24;96802.69;;;11.11;51.88
25130;BME280;13308;50.860;13.664;2023-04-07T12:46:50;96807.88;;;11.09;50.98
25130;BME280;13308;50.860;13.664;2023-04-07T12:49:15;96804.53;;;10.98;51.39
25130;BME280;13308;50.860;13.664;2023-04-07T12:51:40;96809.97;;;11.02;51.37
25130;BME280;13308;50.860;13.664;2023-04-07T12:54:06;96804.88;;;11.00;52.29
25130;BME280;13308;50.860;13.664;2023-04-07T12:56:31;96806.41;;;11.24;52.00
25130;BME280;13308;50.860;13.664;2023-04-07T12:58:57;96803.22;;;11.26;49.80
25130;BME280;13308;50.860;13.664;2023-04-07T13:01:22;96799.19;;;11.30;50.80
25130;BME280;13308;50.860;13.664;2023-04-07T13:03:47;96807.06;;;11.32;51.05
25130;BME280;13308;50.860;13.664;2023-04-07T13:06:13;96806.59;;;11.56;51.58
25130;BME280;13308;50.860;13.664;2023-04-07T13:08:39;96803.94;;;11.72;51.63
25130;BME280;13308;50.860;13.664;2023-04-07T13:11:05;96814.88;;;11.95;51.32
25130;BME280;13308;50.860;13.664;2023-04-07T13:13:30;96816.31;;;12.19;49.12
25130;BME280;13308;50.860;13.664;2023-04-07T13:15:56;96816.41;;;12.16;49.92
25130;BME280;13308;50.860;13.664;2023-04-07T13:18:22;96814.38;;;12.00;49.60
25130;BME280;13308;50.860;13.664;2023-04-07T13:20:47;96816.88;;;11.95;48.33
25130;BME280;13308;50.860;13.664;2023-04-07T13:23:12;96815.25;;;12.13;48.27
25130;BME280;13308;50.860;13.664;2023-04-07T13:25:38;96807.63;;;12.01;48.08
25130;BME280;13308;50.860;13.664;2023-04-07T13:28:03;96812.09;;;11.95;47.05
25130;BME280;13308;50.860;13.664;2023-04-07T13:30:29;96803.38;;;11.97;49.45
25130;BME280;13308;50.860;13.664;2023-04-07T13:32:54;96798.44;;;11.88;50.56
25130;BME280;13308;50.860;13.664;2023-04-07T13:35:19;96799.22;;;12.08;48.00
25130;BME280;13308;50.860;13.664;2023-04-07T13:37:45;96796.38;;;12.28;47.14
25130;BME280;13308;50.860;13.664;2023-04-07T13:40:11;96794.06;;;12.58;46.50
25130;BME280;13308;50.860;13.664;2023-04-07T13:42:39;96794.94;;;12.55;47.28
25130;BME280;13308;50.860;13.664;2023-04-07T13:45:04;96790.97;;;12.72;47.83
25130;BME280;13308;50.860;13.664;2023-04-07T13:47:30;96788.38;;;12.65;47.91
25130;BME280;13308;50.860;13.664;2023-04-07T13:49:59;96791.41;;;13.03;46.16
25130;BME280;13308;50.860;13.664;2023-04-07T13:52:24;96806.69;;;13.23;43.77
25130;BME280;13308;50.860;13.664;2023-04-07T13:54:51;96786.97;;;13.21;44.51
25130;BME280;13308;50.860;13.664;2023-04-07T13:57:16;96792.50;;;13.21;44.22
25130;BME280;13308;50.860;13.664;2023-04-07T13:59:45;96789.97;;;13.55;44.21
25130;BME280;13308;50.860;13.664;2023-04-07T14:02:13;96793.50;;;14.25;44.31
25130;BME280;13308;50.860;13.664;2023-04-07T14:04:38;96791.28;;;14.70;43.08
25130;BME280;13308;50.860;13.664;2023-04-07T14:07:04;96797.59;;;15.42;41.45
25130;BME280;13308;50.860;13.664;2023-04-07T14:09:29;96792.94;;;15.82;40.10
25130;BME280;13308;50.860;13.664;2023-04-07T14:11:54;96798.50;;;15.82;41.60
25130;BME280;13308;50.860;13.664;2023-04-07T14:14:21;96787.50;;;15.57;42.67
25130;BME280;13308;50.860;13.664;2023-04-07T14:16:46;96798.25;;;15.89;41.43
25130;BME280;13308;50.860;13.664;2023-04-07T14:19:14;96785.41;;;15.92;42.57
25130;BME280;13308;50.860;13.664;2023-04-07T14:21:40;96786.59;;;15.60;42.70
25130;BME280;13308;50.860;13.664;2023-04-07T14:24:05;96787.75;;;15.50;42.35
25130;BME280;13308;50.860;13.664;2023-04-07T14:26:30;96783.22;;;15.44;43.48
25130;BME280;13308;50.860;13.664;2023-04-07T14:28:56;96775.78;;;15.28;43.29
25130;BME280;13308;50.860;13.664;2023-04-07T14:31:21;96779.03;;;14.80;43.65
25130;BME280;13308;50.860;13.664;2023-04-07T14:33:46;96776.94;;;14.72;43.94
25130;BME280;13308;50.860;13.664;2023-04-07T14:36:14;96785.28;;;14.34;45.19
25130;BME280;13308;50.860;13.664;2023-04-07T14:38:40;96778.53;;;14.35;45.91
25130;BME280;13308;50.860;13.664;2023-04-07T14:41:06;96778.34;;;14.01;46.63
25130;BME280;13308;50.860;13.664;2023-04-07T14:43:31;96779.44;;;13.91;47.04
25130;BME280;13308;50.860;13.664;2023-04-07T14:45:57;96777.75;;;13.40;46.96
25130;BME280;13308;50.860;13.664;2023-04-07T14:48:23;96781.59;;;13.14;47.69
25130;BME280;13308;50.860;13.664;2023-04-07T14:50:49;96782.53;;;13.24;48.50
25130;BME280;13308;50.860;13.664;2023-04-07T14:53:15;96780.56;;;13.24;48.02
25130;BME280;13308;50.860;13.664;2023-04-07T14:55:41;96777.84;;;13.37;46.81
25130;BME280;13308;50.860;13.664;2023-04-07T14:58:06;96782.28;;;13.18;48.99
25130;BME280;13308;50.860;13.664;2023-04-07T15:00:32;96781.88;;;13.04;48.98
25130;BME280;13308;50.860;13.664;2023-04-07T15:02:57;96780.31;;;13.19;48.55
25130;BME280;13308;50.860;13.664;2023-04-07T15:05:22;96776.44;;;13.00;50.12
25130;BME280;13308;50.860;13.664;2023-04-07T15:07:50;96777.91;;;12.73;49.19
25130;BME280;13308;50.860;13.664;2023-04-07T15:10:16;96774.72;;;12.58;49.93
25130;BME280;13308;50.860;13.664;2023-04-07T15:12:43;96772.88;;;12.52;50.38
25130;BME280;13308;50.860;13.664;2023-04-07T15:15:11;96771.41;;;12.31;50.92
25130;BME280;13308;50.860;13.664;2023-04-07T15:17:36;96774.34;;;12.24;49.44
25130;BME280;13308;50.860;13.664;2023-04-07T15:20:03;96771.59;;;12.05;49.99
25130;BME280;13308;50.860;13.664;2023-04-07T15:22:28;96767.63;;;11.90;51.84
25130;BME280;13308;50.860;13.664;2023-04-07T15:24:54;96767.41;;;11.81;50.04
25130;BME280;13308;50.860;13.664;2023-04-07T15:27:20;96771.28;;;11.67;51.52
25130;BME280;13308;50.860;13.664;2023-04-07T15:29:45;96771.69;;;11.66;52.24
25130;BME280;13308;50.860;13.664;2023-04-07T15:32:11;96772.72;;;11.52;52.37
25130;BME280;13308;50.860;13.664;2023-04-07T15:34:36;96773.56;;;11.30;52.47
25130;BME280;13308;50.860;13.664;2023-04-07T15:37:01;96772.16;;;11.22;52.35
25130;BME280;13308;50.860;13.664;2023-04-07T15:39:27;96767.19;;;11.13;51.58
25130;BME280;13308;50.860;13.664;2023-04-07T15:41:52;96772.13;;;11.02;51.08
25130;BME280;13308;50.860;13.664;2023-04-07T15:44:17;96768.91;;;10.84;52.70
25130;BME280;13308;50.860;13.664;2023-04-07T15:46:43;96771.28;;;10.82;53.98
25130;BME280;13308;50.860;13.664;2023-04-07T15:49:08;96768.66;;;10.75;53.51
25130;BME280;13308;50.860;13.664;2023-04-07T15:51:33;96767.84;;;10.78;52.52
25130;BME280;13308;50.860;13.664;2023-04-07T15:53:59;96762.59;;;10.61;52.02
25130;BME280;13308;50.860;13.664;2023-04-07T15:56:25;96771.66;;;10.38;52.68
25130;BME280;13308;50.860;13.664;2023-04-07T15:58:51;96767.69;;;10.39;52.83
25130;BME280;13308;50.860;13.664;2023-04-07T16:01:16;96767.19;;;10.21;53.36
25130;BME280;13308;50.860;13.664;2023-04-07T16:03:42;96767.72;;;10.13;53.30
25130;BME280;13308;50.860;13.664;2023-04-07T16:06:07;96773.06;;;9.93;54.65
25130;BME280;13308;50.860;13.664;2023-04-07T16:08:32;96771.91;;;9.94;54.96
25130;BME280;13308;50.860;13.664;2023-04-07T16:10:58;96773.19;;;9.86;54.42
25130;BME280;13308;50.860;13.664;2023-04-07T16:13:23;96764.19;;;9.82;54.54
25130;BME280;13308;50.860;13.664;2023-04-07T16:15:49;96768.63;;;9.76;55.37
25130;BME280;13308;50.860;13.664;2023-04-07T16:18:14;96773.78;;;9.71;55.79
25130;BME280;13308;50.860;13.664;2023-04-07T16:20:39;96779.81;;;9.62;54.69
25130;BME280;13308;50.860;13.664;2023-04-07T16:23:05;96775.03;;;9.66;54.96
25130;BME280;13308;50.860;13.664;2023-04-07T16:25:30;96787.84;;;9.50;55.41
25130;BME280;13308;50.860;13.664;2023-04-07T16:27:55;96784.38;;;9.42;56.05
25130;BME280;13308;50.860;13.664;2023-04-07T16:30:21;96786.38;;;9.38;55.74
25130;BME280;13308;50.860;13.664;2023-04-07T16:32:48;96788.94;;;9.22;56.43
25130;BME280;13308;50.860;13.664;2023-04-07T16:35:13;96785.09;;;9.13;56.65
25130;BME280;13308;50.860;13.664;2023-04-07T16:37:39;96788.28;;;9.11;56.66
25130;BME280;13308;50.860;13.664;2023-04-07T16:40:08;96792.94;;;9.14;56.45
25130;BME280;13308;50.860;13.664;2023-04-07T16:42:36;96788.84;;;8.96;56.82
25130;BME280;13308;50.860;13.664;2023-04-07T16:45:02;96793.91;;;8.97;57.51
25130;BME280;13308;50.860;13.664;2023-04-07T16:47:28;96805.81;;;8.87;58.15
25130;BME280;13308;50.860;13.664;2023-04-07T16:49:54;96795.69;;;8.77;58.09
25130;BME280;13308;50.860;13.664;2023-04-07T16:52:21;96808.75;;;8.66;58.10
25130;BME280;13308;50.860;13.664;2023-04-07T16:54:46;96806.84;;;8.60;58.90
25130;BME280;13308;50.860;13.664;2023-04-07T16:57:12;96804.19;;;8.49;58.60
25130;BME280;13308;50.860;13.664;2023-04-07T16:59:38;96809.34;;;8.44;59.30
25130;BME280;13308;50.860;13.664;2023-04-07T17:02:10;96813.31;;;8.40;59.06
25130;BME280;13308;50.860;13.664;2023-04-07T17:04:39;96811.28;;;8.43;59.03
25130;BME280;13308;50.860;13.664;2023-04-07T17:07:05;96822.75;;;8.32;59.88
25130;BME280;13308;50.860;13.664;2023-04-07T17:09:31;96818.50;;;8.24;60.04
25130;BME280;13308;50.860;13.664;2023-04-07T17:11:56;96822.88;;;8.11;60.34
25130;BME280;13308;50.860;13.664;2023-04-07T17:14:21;96827.63;;;8.07;60.66
25130;BME280;13308;50.860;13.664;2023-04-07T17:16:47;96827.66;;;8.00;61.03
25130;BME280;13308;50.860;13.664;2023-04-07T17:19:12;96835.53;;;7.91;61.58
25130;BME280;13308;50.860;13.664;2023-04-07T17:21:38;96839.50;;;7.83;61.97
25130;BME280;13308;50.860;13.664;2023-04-07T17:24:05;96840.31;;;7.76;62.71
25130;BME280;13308;50.860;13.664;2023-04-07T17:26:30;96844.31;;;7.65;64.15
25130;BME280;13308;50.860;13.664;2023-04-07T17:28:56;96844.31;;;7.65;62.84
25130;BME280;13308;50.860;13.664;2023-04-07T17:31:21;96842.75;;;7.60;64.42
25130;BME280;13308;50.860;13.664;2023-04-07T17:33:47;96847.47;;;7.53;64.34
25130;BME280;13308;50.860;13.664;2023-04-07T17:36:12;96847.47;;;7.53;64.73
25130;BME280;13308;50.860;13.664;2023-04-07T17:38:38;96854.19;;;7.45;65.57
25130;BME280;13308;50.860;13.664;2023-04-07T17:41:03;96849.88;;;7.37;66.79
25130;BME280;13308;50.860;13.664;2023-04-07T17:43:29;96851.88;;;7.33;66.88
25130;BME280;13308;50.860;13.664;2023-04-07T17:45:55;96865.97;;;7.35;66.46
25130;BME280;13308;50.860;13.664;2023-04-07T17:48:20;96868.72;;;7.28;67.50
25130;BME280;13308;50.860;13.664;2023-04-07T17:50:49;96867.16;;;7.27;67.64
25130;BME280;13308;50.860;13.664;2023-04-07T17:53:15;96866.00;;;7.21;69.13
25130;BME280;13308;50.860;13.664;2023-04-07T17:55:40;96862.47;;;7.17;68.93